Pineville, Minnesota
Current Conditions -  °F | °C
As of 2:52 PM on Tuesday 27 Jan 2015 (Local Time) from KEVM Reporting Station
Overcast Overcast  
Wind Chill: 21°   Ceiling: 1100
Heat Index: 28°   Visibility: 10mi
Dew Point: 23°   Wind: 7mph
Humidity: 80%   Direction: 210°SSW
Pressure: 30.11"   Gusts: NA
Location:  47.4622°N, 92.1946°W
Report Text: KEVM 272052Z AUTO 21006KT 10SM OVC011 M02/M05 A3011 RMK AO2
Loading
Personal Weather Stations






























Interactive Weather Map New forecast layout! Learn more

10-Day Weather Forecast

Advertisements
Track Severe Weather on mobile